• Join FlightAware (Why Join?)
  • Login
  • US Flag 
05:16AM EDT


 

Airport Tracker/Info


-or-


 

Live Flight TrackerFlight Track Log ✈ SKW7363 ✈ 25-Aug-2013 ✈ KSLC - KCOD

Flight Track Log - Related Links

Times and Time Zones

All times are in EDT time to prevent confusion due to time zone crossing. See the SKW7363 flight status page for this flight to view local times or setup timezone preferences in your user account.

Time Position Orientation Groundspeed Altitude Reporting Facility
EDT Latitude Longitude Course Direction KTS MPH feet Rate Location/Type
07:38PM 40.7864 -111.9975 50° Northeast 141 162 4,700  Level Salt Lake Center
07:39PM 40.7522 -112.0469 228° Southwest 184 212 7,300 2,400 Climbing Salt Lake Center
07:40PM 40.7978 -112.1097 314° West 263 303 10,100 2,160 Climbing Salt Lake Center
07:41PM 40.8711 -112.0722 21° North 311 358 11,800 1,980 Climbing Salt Lake Center
07:42PM 41.1082 -111.9777 50° Northeast  Level FlightAware Approximate
07:42PM 40.9497 -112.0169 28° Northeast 321 369 14,300  Level Salt Lake Center
07:43PM 41.1905 -111.8483 50° Northeast  Level FlightAware Approximate
07:43PM 41.0333 -111.9589 28° Northeast 336 387 16,400  Level Salt Lake Center
07:44PM 41.1208 -111.8953 29° Northeast 348 400 18,400 1,740 Climbing Salt Lake Center
07:45PM 41.2092 -111.8253 31° Northeast 364 419 20,000 1,500 Climbing Salt Lake Center
07:46PM 41.3022 -111.7528 30° Northeast 383 441 21,500 1,560 Climbing Salt Lake Center
07:47PM 41.4153 -111.6639 31° Northeast 394 453 23,300 1,380 Climbing Salt Lake Center
07:48PM 41.5142 -111.5858 31° Northeast 410 472 24,400 1,080 Climbing Salt Lake Center
07:49PM 41.6158 -111.5039 31° Northeast 426 490 25,600 1,200 Climbing Salt Lake Center
07:50PM 41.7172 -111.4231 31° Northeast 424 488 26,900 660 Climbing Salt Lake Center
07:51PM 41.8222 -111.3386 31° Northeast 433 498 27,000  Climbing Salt Lake Center
07:52PM 41.9328 -111.2536 30° Northeast 453 521 27,000  Level Salt Lake Center
07:53PM 42.0417 -111.1650 31° Northeast 457 526 27,000  Level Salt Lake Center
07:54PM 42.1706 -111.0608 31° Northeast 452 520 27,000  Level Salt Lake Center
07:55PM 42.2775 -110.9739 31° Northeast 450 518 27,000  Level Salt Lake Center
07:56PM 42.3856 -110.8831 32° Northeast 445 512 27,000  Level Salt Lake Center
07:57PM 42.4858 -110.8006 31° Northeast 440 506 27,000  Level Salt Lake Center
07:58PM 42.6019 -110.7058 31° Northeast 437 503 27,000  Level Salt Lake Center
07:59PM 42.7025 -110.6225 31° Northeast 440 506 27,000  Level Salt Lake Center
08:00PM 42.8161 -110.5269 32° Northeast 437 503 27,000  Level Salt Lake Center
08:02PM 42.9210 -110.4546 27° Northeast  Level FlightAware Approximate
08:02PM 43.0331 -110.3469 27° Northeast 442 509 27,000  Level Salt Lake Center
08:03PM 43.1322 -110.2619 32° Northeast 440 506 27,000  Level Salt Lake Center
08:05PM 43.2472 -110.1614 32° Northeast 441 507 27,000  Level Salt Lake Center
08:06PM 43.3519 -110.0733 31° Northeast 443 510 27,000  Level Salt Lake Center
08:07PM 43.4494 -109.9908 32° Northeast 434 499 27,000  Level Salt Lake Center
08:08PM 43.5589 -109.8969 32° Northeast 428 493 27,000 -120 Level Salt Lake Center
08:09PM 43.6556 -109.8156 31° Northeast 425 489 26,800 -1,320 Descending Salt Lake Center
08:10PM 43.7683 -109.7175 32° Northeast 429 494 24,300 -2,280 Descending Salt Lake Center
08:11PM 43.8597 -109.6369 32° Northeast 412 474 22,200 -2,280 Descending Salt Lake Center
08:12PM 43.9597 -109.5508 32° Northeast 389 448 19,700 -2,340 Descending Salt Lake Center
08:13PM 44.0431 -109.4797 32° Northeast 367 422 17,500 -1,860 Descending Salt Lake Center
08:14PM 44.1292 -109.4053 32° Northeast 353 406 15,900 -1,260 Descending Salt Lake Center
08:15PM 44.2025 -109.3394 33° Northeast 327 376 15,000 -600 Descending Salt Lake Center
08:16PM 44.2764 -109.2733 33° Northeast 318 366 14,700 -1,440 Descending Salt Lake Center
08:17PM 44.3556 -109.2372 18° North 310 357 12,100 -2,280 Descending Salt Lake Center
08:18PM 44.4347 -109.2208 North 276 318 10,100 -1,980 Descending Salt Lake Center
08:19PM 44.4553 -109.1494 68° East 224 258 8,100 -1,980 Descending Salt Lake Center